sensor_id;sensor_type;location;lat;lon;timestamp;pressure;altitude;pressure_sealevel;temperature;humidity
18765;BME280;9511;54.242;12.448;2023-02-19T04:05:10;101161.56;;;2.73;100.00
18765;BME280;9511;54.242;12.448;2023-02-19T04:07:44;101164.28;;;2.74;100.00
18765;BME280;9511;54.242;12.448;2023-02-19T04:10:16;101166.72;;;2.71;100.00
18765;BME280;9511;54.242;12.448;2023-02-19T04:12:50;101173.81;;;2.74;100.00
18765;BME280;9511;54.242;12.448;2023-02-19T04:15:22;101170.13;;;2.70;100.00
18765;BME280;9511;54.242;12.448;2023-02-19T04:17:54;101165.09;;;2.73;100.00
18765;BME280;9511;54.242;12.448;2023-02-19T04:20:27;101179.94;;;2.74;100.00
18765;BME280;9511;54.242;12.448;2023-02-19T04:22:56;101182.31;;;2.70;100.00
18765;BME280;9511;54.242;12.448;2023-02-19T04:25:25;101182.19;;;2.68;100.00
18765;BME280;9511;54.242;12.448;2023-02-19T04:27:53;101188.03;;;2.64;100.00
18765;BME280;9511;54.242;12.448;2023-02-19T04:30:21;101192.31;;;2.63;100.00
18765;BME280;9511;54.242;12.448;2023-02-19T04:32:48;101194.03;;;2.63;100.00
18765;BME280;9511;54.242;12.448;2023-02-19T04:35:15;101192.25;;;2.62;100.00
18765;BME280;9511;54.242;12.448;2023-02-19T04:37:44;101201.88;;;2.63;100.00
18765;BME280;9511;54.242;12.448;2023-02-19T04:40:11;101212.44;;;2.64;100.00
18765;BME280;9511;54.242;12.448;2023-02-19T04:42:38;101212.53;;;2.66;100.00
18765;BME280;9511;54.242;12.448;2023-02-19T04:45:06;101209.09;;;2.67;100.00
18765;BME280;9511;54.242;12.448;2023-02-19T04:47:34;101205.69;;;2.68;100.00
18765;BME280;9511;54.242;12.448;2023-02-19T04:50:01;101209.84;;;2.64;100.00
18765;BME280;9511;54.242;12.448;2023-02-19T04:52:28;101206.50;;;2.67;100.00
18765;BME280;9511;54.242;12.448;2023-02-19T04:54:57;101211.34;;;2.61;100.00
18765;BME280;9511;54.242;12.448;2023-02-19T04:57:24;101214.75;;;2.60;100.00
18765;BME280;9511;54.242;12.448;2023-02-19T04:59:51;101224.97;;;2.57;100.00
18765;BME280;9511;54.242;12.448;2023-02-19T05:02:19;101233.63;;;2.56;100.00
18765;BME280;9511;54.242;12.448;2023-02-19T05:04:46;101231.03;;;2.56;100.00
18765;BME280;9511;54.242;12.448;2023-02-19T05:07:13;101239.66;;;2.55;100.00
18765;BME280;9511;54.242;12.448;2023-02-19T05:09:41;101237.88;;;2.54;100.00
18765;BME280;9511;54.242;12.448;2023-02-19T05:12:09;101234.03;;;2.49;100.00
18765;BME280;9511;54.242;12.448;2023-02-19T05:14:36;101238.28;;;2.47;100.00
18765;BME280;9511;54.242;12.448;2023-02-19T05:17:04;101246.09;;;2.47;100.00
18765;BME280;9511;54.242;12.448;2023-02-19T05:19:31;101249.91;;;2.52;100.00
18765;BME280;9511;54.242;12.448;2023-02-19T05:21:58;101249.22;;;2.54;100.00
18765;BME280;9511;54.242;12.448;2023-02-19T05:24:25;101246.28;;;2.50;100.00
18765;BME280;9511;54.242;12.448;2023-02-19T05:26:54;101247.91;;;2.48;100.00
18765;BME280;9511;54.242;12.448;2023-02-19T05:29:23;101245.09;;;2.45;100.00
18765;BME280;9511;54.242;12.448;2023-02-19T05:31:50;101255.84;;;2.49;100.00
18765;BME280;9511;54.242;12.448;2023-02-19T05:34:17;101266.78;;;2.44;100.00
18765;BME280;9511;54.242;12.448;2023-02-19T05:36:44;101263.34;;;2.45;100.00
18765;BME280;9511;54.242;12.448;2023-02-19T05:39:12;101268.59;;;2.45;100.00
18765;BME280;9511;54.242;12.448;2023-02-19T05:41:39;101267.78;;;2.46;100.00
18765;BME280;9511;54.242;12.448;2023-02-19T05:44:08;101262.69;;;2.47;100.00
18765;BME280;9511;54.242;12.448;2023-02-19T05:46:37;101267.91;;;2.47;100.00
18765;BME280;9511;54.242;12.448;2023-02-19T05:49:04;101273.81;;;2.45;100.00
18765;BME280;9511;54.242;12.448;2023-02-19T05:51:31;101263.19;;;2.42;100.00
18765;BME280;9511;54.242;12.448;2023-02-19T05:53:59;101267.50;;;2.41;100.00
18765;BME280;9511;54.242;12.448;2023-02-19T05:56:30;101274.41;;;2.40;100.00
18765;BME280;9511;54.242;12.448;2023-02-19T05:58:58;101266.56;;;2.40;100.00
18765;BME280;9511;54.242;12.448;2023-02-19T06:01:27;101283.16;;;2.41;100.00
18765;BME280;9511;54.242;12.448;2023-02-19T06:03:56;101285.78;;;2.41;100.00
18765;BME280;9511;54.242;12.448;2023-02-19T06:06:24;101285.66;;;2.66;100.00
18765;BME280;9511;54.242;12.448;2023-02-19T06:08:52;101286.03;;;2.99;100.00
18765;BME280;9511;54.242;12.448;2023-02-19T06:11:20;101287.19;;;3.17;100.00
18765;BME280;9511;54.242;12.448;2023-02-19T06:13:47;101296.22;;;3.22;100.00
18765;BME280;9511;54.242;12.448;2023-02-19T06:16:15;101293.69;;;3.24;100.00
18765;BME280;9511;54.242;12.448;2023-02-19T06:18:43;101291.78;;;3.21;100.00
18765;BME280;9511;54.242;12.448;2023-02-19T06:21:14;101295.72;;;3.28;100.00
18765;BME280;9511;54.242;12.448;2023-02-19T06:23:42;101298.41;;;3.29;99.59
18765;BME280;9511;54.242;12.448;2023-02-19T06:26:12;101303.34;;;3.25;98.91
18765;BME280;9511;54.242;12.448;2023-02-19T06:28:41;101317.00;;;3.34;98.81
18765;BME280;9511;54.242;12.448;2023-02-19T06:31:10;101312.81;;;3.23;98.60
18765;BME280;9511;54.242;12.448;2023-02-19T06:33:38;101312.09;;;3.25;98.50
18765;BME280;9511;54.242;12.448;2023-02-19T06:36:09;101320.44;;;3.19;97.83
18765;BME280;9511;54.242;12.448;2023-02-19T06:38:39;101318.66;;;3.18;97.59
18765;BME280;9511;54.242;12.448;2023-02-19T06:41:07;101306.81;;;3.10;97.41
18765;BME280;9511;54.242;12.448;2023-02-19T06:43:35;101318.22;;;3.26;97.32
18765;BME280;9511;54.242;12.448;2023-02-19T06:46:04;101315.91;;;3.30;96.88
18765;BME280;9511;54.242;12.448;2023-02-19T06:48:32;101330.38;;;3.25;96.65
18765;BME280;9511;54.242;12.448;2023-02-19T06:51:00;101333.47;;;3.05;95.94
18765;BME280;9511;54.242;12.448;2023-02-19T06:53:28;101339.09;;;2.84;96.36
18765;BME280;9511;54.242;12.448;2023-02-19T06:55:57;101347.03;;;2.73;96.50
18765;BME280;9511;54.242;12.448;2023-02-19T06:58:25;101346.53;;;2.65;96.90
18765;BME280;9511;54.242;12.448;2023-02-19T07:00:52;101350.34;;;2.57;97.12
18765;BME280;9511;54.242;12.448;2023-02-19T07:03:20;101354.16;;;2.49;97.82
18765;BME280;9511;54.242;12.448;2023-02-19T07:05:47;101355.78;;;2.47;98.11
18765;BME280;9511;54.242;12.448;2023-02-19T07:08:14;101372.22;;;2.46;98.41
18765;BME280;9511;54.242;12.448;2023-02-19T07:10:42;101369.59;;;2.46;98.69
18765;BME280;9511;54.242;12.448;2023-02-19T07:13:11;101370.41;;;2.45;98.63
18765;BME280;9511;54.242;12.448;2023-02-19T07:15:38;101375.72;;;2.46;98.93
18765;BME280;9511;54.242;12.448;2023-02-19T07:18:05;101380.94;;;2.46;99.28
18765;BME280;9511;54.242;12.448;2023-02-19T07:20:35;101380.28;;;2.49;98.99
18765;BME280;9511;54.242;12.448;2023-02-19T07:23:03;101380.28;;;2.49;99.44
18765;BME280;9511;54.242;12.448;2023-02-19T07:25:30;101392.59;;;2.51;98.81
18765;BME280;9511;54.242;12.448;2023-02-19T07:27:57;101392.94;;;2.56;98.89
18765;BME280;9511;54.242;12.448;2023-02-19T07:30:26;101396.34;;;2.55;98.61
18765;BME280;9511;54.242;12.448;2023-02-19T07:32:53;101397.97;;;2.53;98.63
18765;BME280;9511;54.242;12.448;2023-02-19T07:35:20;101405.00;;;2.54;98.71
18765;BME280;9511;54.242;12.448;2023-02-19T07:37:48;101403.06;;;2.51;98.67
18765;BME280;9511;54.242;12.448;2023-02-19T07:40:15;101410.22;;;2.54;98.82
18765;BME280;9511;54.242;12.448;2023-02-19T07:42:42;101426.78;;;2.54;98.65
18765;BME280;9511;54.242;12.448;2023-02-19T07:45:09;101429.59;;;2.57;98.66
18765;BME280;9511;54.242;12.448;2023-02-19T07:47:38;101417.75;;;2.62;98.72
18765;BME280;9511;54.242;12.448;2023-02-19T07:50:06;101428.50;;;2.67;98.23
18765;BME280;9511;54.242;12.448;2023-02-19T07:52:34;101446.22;;;2.71;98.33
18765;BME280;9511;54.242;12.448;2023-02-19T07:55:01;101451.44;;;2.71;98.46
18765;BME280;9511;54.242;12.448;2023-02-19T07:57:28;101450.63;;;2.72;98.08
18765;BME280;9511;54.242;12.448;2023-02-19T07:59:56;101451.63;;;2.74;97.95
18765;BME280;9511;54.242;12.448;2023-02-19T08:02:23;101461.56;;;2.80;97.75
18765;BME280;9511;54.242;12.448;2023-02-19T08:05:09;101460.91;;;2.82;97.59
18765;BME280;9511;54.242;12.448;2023-02-19T08:07:38;101457.66;;;2.86;97.02
18765;BME280;9511;54.242;12.448;2023-02-19T08:10:06;101463.00;;;2.88;96.99
18765;BME280;9511;54.242;12.448;2023-02-19T08:12:55;101467.13;;;2.98;96.59
18765;BME280;9511;54.242;12.448;2023-02-19T08:15:39;101482.31;;;3.03;96.78
18765;BME280;9511;54.242;12.448;2023-02-19T08:18:07;101480.31;;;2.99;95.77
18765;BME280;9511;54.242;12.448;2023-02-19T08:20:36;101481.63;;;3.06;95.49
18765;BME280;9511;54.242;12.448;2023-02-19T08:23:03;101492.88;;;3.18;95.37
18765;BME280;9511;54.242;12.448;2023-02-19T08:25:31;101498.94;;;3.17;95.39
18765;BME280;9511;54.242;12.448;2023-02-19T08:27:59;101503.25;;;3.16;94.98
18765;BME280;9511;54.242;12.448;2023-02-19T08:30:27;101505.88;;;3.16;94.43
18765;BME280;9511;54.242;12.448;2023-02-19T08:32:55;101513.59;;;3.15;94.19
18765;BME280;9511;54.242;12.448;2023-02-19T08:35:22;101509.16;;;3.14;93.95
18765;BME280;9511;54.242;12.448;2023-02-19T08:37:50;101521.44;;;3.15;93.49
18765;BME280;9511;54.242;12.448;2023-02-19T08:40:21;101515.50;;;3.17;93.46
18765;BME280;9511;54.242;12.448;2023-02-19T08:42:48;101541.97;;;3.22;92.86
18765;BME280;9511;54.242;12.448;2023-02-19T08:45:16;101536.75;;;3.22;92.61
18765;BME280;9511;54.242;12.448;2023-02-19T08:47:44;101535.94;;;3.23;92.55
18765;BME280;9511;54.242;12.448;2023-02-19T08:50:11;101537.97;;;3.27;92.37
18765;BME280;9511;54.242;12.448;2023-02-19T08:52:38;101541.88;;;3.34;92.12
18765;BME280;9511;54.242;12.448;2023-02-19T08:55:07;101542.69;;;3.33;91.85
18765;BME280;9511;54.242;12.448;2023-02-19T08:57:36;101547.78;;;3.31;91.64
18765;BME280;9511;54.242;12.448;2023-02-19T09:00:05;101547.19;;;3.35;91.83
18765;BME280;9511;54.242;12.448;2023-02-19T09:02:34;101547.69;;;3.43;91.60
18765;BME280;9511;54.242;12.448;2023-02-19T09:05:02;101556.34;;;3.42;90.79
18765;BME280;9511;54.242;12.448;2023-02-19T09:07:31;101555.25;;;3.52;90.79
18765;BME280;9511;54.242;12.448;2023-02-19T09:09:59;101556.66;;;3.46;90.48
18765;BME280;9511;54.242;12.448;2023-02-19T09:12:28;101557.88;;;3.52;90.13
18765;BME280;9511;54.242;12.448;2023-02-19T09:14:55;101551.25;;;3.57;89.96
18765;BME280;9511;54.242;12.448;2023-02-19T09:17:23;101555.97;;;3.62;89.39
18765;BME280;9511;54.242;12.448;2023-02-19T09:19:50;101567.34;;;3.63;88.70
18765;BME280;9511;54.242;12.448;2023-02-19T09:22:17;101564.31;;;3.57;88.38
18765;BME280;9511;54.242;12.448;2023-02-19T09:24:45;101568.34;;;3.65;88.43
18765;BME280;9511;54.242;12.448;2023-02-19T09:27:14;101576.41;;;3.68;88.60
18765;BME280;9511;54.242;12.448;2023-02-19T09:29:43;101569.84;;;3.75;88.63
18765;BME280;9511;54.242;12.448;2023-02-19T09:32:10;101582.44;;;3.80;88.28
18765;BME280;9511;54.242;12.448;2023-02-19T09:34:37;101593.28;;;3.86;88.32
18765;BME280;9511;54.242;12.448;2023-02-19T09:37:05;101583.25;;;3.79;88.14
18765;BME280;9511;54.242;12.448;2023-02-19T09:39:33;101593.41;;;3.75;88.19
18765;BME280;9511;54.242;12.448;2023-02-19T09:42:03;101594.41;;;3.77;88.13
18765;BME280;9511;54.242;12.448;2023-02-19T09:44:38;101587.25;;;3.74;88.09
18765;BME280;9511;54.242;12.448;2023-02-19T09:47:15;101594.31;;;3.75;87.32
18765;BME280;9511;54.242;12.448;2023-02-19T09:49:46;101607.38;;;3.75;87.53
18765;BME280;9511;54.242;12.448;2023-02-19T09:52:22;101613.44;;;3.74;87.24
18765;BME280;9511;54.242;12.448;2023-02-19T09:54:51;101621.28;;;3.87;87.53
18765;BME280;9511;54.242;12.448;2023-02-19T09:57:23;101603.53;;;3.83;87.02
18765;BME280;9511;54.242;12.448;2023-02-19T09:59:55;101625.28;;;3.95;87.09
18765;BME280;9511;54.242;12.448;2023-02-19T10:02:27;101631.25;;;3.93;86.75
18765;BME280;9511;54.242;12.448;2023-02-19T10:04:56;101631.75;;;3.87;86.20
18765;BME280;9511;54.242;12.448;2023-02-19T10:07:35;101633.97;;;4.08;86.69
18765;BME280;9511;54.242;12.448;2023-02-19T10:10:20;101629.69;;;4.23;86.64
18765;BME280;9511;54.242;12.448;2023-02-19T10:12:51;101639.34;;;4.24;85.86
18765;BME280;9511;54.242;12.448;2023-02-19T10:15:24;101642.50;;;4.18;85.07
18765;BME280;9511;54.242;12.448;2023-02-19T10:17:56;101644.69;;;4.39;85.40
18765;BME280;9511;54.242;12.448;2023-02-19T10:20:25;101652.97;;;4.32;85.11
18765;BME280;9511;54.242;12.448;2023-02-19T10:22:58;101672.50;;;4.37;84.58
18765;BME280;9511;54.242;12.448;2023-02-19T10:25:26;101661.31;;;4.39;83.86
18765;BME280;9511;54.242;12.448;2023-02-19T10:27:54;101663.31;;;4.43;83.75
18765;BME280;9511;54.242;12.448;2023-02-19T10:30:26;101661.78;;;4.47;83.71
18765;BME280;9511;54.242;12.448;2023-02-19T10:33:01;101664.13;;;4.42;83.05
18765;BME280;9511;54.242;12.448;2023-02-19T10:35:29;101674.19;;;4.49;83.24
18765;BME280;9511;54.242;12.448;2023-02-19T10:37:57;101686.09;;;4.44;83.37
18765;BME280;9511;54.242;12.448;2023-02-19T10:40:26;101682.47;;;4.42;83.40
18765;BME280;9511;54.242;12.448;2023-02-19T10:42:56;101688.09;;;4.48;83.16
18765;BME280;9511;54.242;12.448;2023-02-19T10:45:28;101706.13;;;4.57;83.07
18765;BME280;9511;54.242;12.448;2023-02-19T10:48:00;101721.53;;;4.52;82.24
18765;BME280;9511;54.242;12.448;2023-02-19T10:50:30;101715.59;;;4.55;82.74
18765;BME280;9511;54.242;12.448;2023-02-19T10:52:59;101711.25;;;4.56;82.75
18765;BME280;9511;54.242;12.448;2023-02-19T10:55:30;101726.88;;;4.67;82.28
18765;BME280;9511;54.242;12.448;2023-02-19T10:58:19;101716.91;;;4.62;81.93
18765;BME280;9511;54.242;12.448;2023-02-19T11:01:08;101721.59;;;4.80;81.79
18765;BME280;9511;54.242;12.448;2023-02-19T11:03:37;101720.47;;;4.90;81.93
18765;BME280;9511;54.242;12.448;2023-02-19T11:06:06;101724.66;;;5.01;81.46
18765;BME280;9511;54.242;12.448;2023-02-19T11:08:45;101738.09;;;5.21;80.62
18765;BME280;9511;54.242;12.448;2023-02-19T11:11:22;101740.78;;;5.07;80.03
18765;BME280;9511;54.242;12.448;2023-02-19T11:13:52;101740.19;;;4.98;79.82
18765;BME280;9511;54.242;12.448;2023-02-19T11:16:20;101751.78;;;5.02;79.49
18765;BME280;9511;54.242;12.448;2023-02-19T11:18:54;101753.81;;;4.93;78.89
18765;BME280;9511;54.242;12.448;2023-02-19T11:21:25;101745.81;;;5.04;78.63
18765;BME280;9511;54.242;12.448;2023-02-19T11:23:58;101761.69;;;5.06;77.69
18765;BME280;9511;54.242;12.448;2023-02-19T11:26:31;101763.78;;;5.12;77.20
18765;BME280;9511;54.242;12.448;2023-02-19T11:29:15;101749.81;;;4.85;77.02
18765;BME280;9511;54.242;12.448;2023-02-19T11:31:43;101763.25;;;5.17;77.29
18765;BME280;9511;54.242;12.448;2023-02-19T11:34:26;101777.81;;;5.40;76.69
18765;BME280;9511;54.242;12.448;2023-02-19T11:37:10;101784.88;;;5.41;76.21
18765;BME280;9511;54.242;12.448;2023-02-19T11:39:39;101787.03;;;5.33;76.20
18765;BME280;9511;54.242;12.448;2023-02-19T11:42:23;101780.72;;;5.17;75.40
18765;BME280;9511;54.242;12.448;2023-02-19T11:45:07;101785.56;;;5.39;74.91
18765;BME280;9511;54.242;12.448;2023-02-19T11:50:47;101805.03;;;5.42;75.36
18765;BME280;9511;54.242;12.448;2023-02-19T11:53:24;101780.84;;;5.33;74.72
18765;BME280;9511;54.242;12.448;2023-02-19T11:56:06;101783.97;;;5.55;74.36
18765;BME280;9511;54.242;12.448;2023-02-19T11:58:54;101792.59;;;5.25;74.36
18765;BME280;9511;54.242;12.448;2023-02-19T12:01:33;101787.44;;;5.54;74.51
18765;BME280;9511;54.242;12.448;2023-02-19T12:04:24;101791.31;;;5.61;73.80
18765;BME280;9511;54.242;12.448;2023-02-19T12:07:05;101786.22;;;5.49;73.45
18765;BME280;9511;54.242;12.448;2023-02-19T12:09:47;101791.81;;;5.69;73.48
18765;BME280;9511;54.242;12.448;2023-02-19T12:12:28;101797.78;;;6.09;73.45
18765;BME280;9511;54.242;12.448;2023-02-19T12:15:08;101791.06;;;6.29;72.73
18765;BME280;9511;54.242;12.448;2023-02-19T12:18:02;101791.47;;;6.20;71.70
18765;BME280;9511;54.242;12.448;2023-02-19T12:20:40;101792.50;;;5.94;71.24
18765;BME280;9511;54.242;12.448;2023-02-19T12:23:31;101798.31;;;6.18;71.22
18765;BME280;9511;54.242;12.448;2023-02-19T12:26:03;101795.69;;;6.18;70.38
18765;BME280;9511;54.242;12.448;2023-02-19T12:28:49;101801.69;;;6.16;70.72
18765;BME280;9511;54.242;12.448;2023-02-19T12:31:50;101799.16;;;6.02;69.71
18765;BME280;9511;54.242;12.448;2023-02-19T12:34:31;101812.38;;;6.33;69.18
18765;BME280;9511;54.242;12.448;2023-02-19T14:20:42;101814.38;;;9.94;56.09
18765;BME280;9511;54.242;12.448;2023-02-19T14:23:15;101820.63;;;9.96;55.89
18765;BME280;9511;54.242;12.448;2023-02-19T14:25:48;101825.94;;;10.99;55.84
18765;BME280;9511;54.242;12.448;2023-02-19T14:28:33;101831.63;;;9.85;54.20
18765;BME280;9511;54.242;12.448;2023-02-19T14:31:08;101837.25;;;9.17;55.05
18765;BME280;9511;54.242;12.448;2023-02-19T14:33:38;101820.78;;;9.60;55.37
18765;BME280;9511;54.242;12.448;2023-02-19T14:36:16;101822.53;;;9.98;53.83
18765;BME280;9511;54.242;12.448;2023-02-19T14:38:47;101820.13;;;10.86;52.99
18765;BME280;9511;54.242;12.448;2023-02-19T14:41:17;101819.59;;;10.95;53.35
18765;BME280;9511;54.242;12.448;2023-02-19T14:43:48;101818.50;;;11.57;51.53
18765;BME280;9511;54.242;12.448;2023-02-19T14:46:22;101826.34;;;10.66;51.22
18765;BME280;9511;54.242;12.448;2023-02-19T14:48:51;101834.25;;;10.24;52.89
18765;BME280;9511;54.242;12.448;2023-02-19T14:51:30;101839.66;;;10.08;52.97
18765;BME280;9511;54.242;12.448;2023-02-19T14:54:08;101831.13;;;10.96;52.49
18765;BME280;9511;54.242;12.448;2023-02-19T14:56:37;101833.50;;;9.69;53.42
18765;BME280;9511;54.242;12.448;2023-02-19T14:59:21;101821.66;;;9.04;55.62
18765;BME280;9511;54.242;12.448;2023-02-19T15:01:57;101836.03;;;8.23;58.64
18765;BME280;9511;54.242;12.448;2023-02-19T15:04:26;101829.72;;;7.38;59.91
18765;BME280;9511;54.242;12.448;2023-02-19T15:06:56;101823.47;;;6.59;62.07
18765;BME280;9511;54.242;12.448;2023-02-19T15:09:30;101837.72;;;6.03;64.27
18765;BME280;9511;54.242;12.448;2023-02-19T15:11:58;101847.03;;;5.98;65.90
18765;BME280;9511;54.242;12.448;2023-02-19T15:14:27;101848.47;;;5.65;66.75
18765;BME280;9511;54.242;12.448;2023-02-19T15:16:59;101852.81;;;5.65;68.55
18765;BME280;9511;54.242;12.448;2023-02-19T15:19:28;101855.44;;;5.65;69.19
18765;BME280;9511;54.242;12.448;2023-02-19T15:21:59;101861.69;;;5.25;70.37
18765;BME280;9511;54.242;12.448;2023-02-19T15:24:28;101860.41;;;5.19;71.54
18765;BME280;9511;54.242;12.448;2023-02-19T15:26:55;101860.13;;;5.01;71.80
18765;BME280;9511;54.242;12.448;2023-02-19T15:29:25;101856.50;;;4.99;72.36
18765;BME280;9511;54.242;12.448;2023-02-19T15:31:54;101873.50;;;4.92;72.32
18765;BME280;9511;54.242;12.448;2023-02-19T15:34:24;101868.59;;;4.97;72.27
18765;BME280;9511;54.242;12.448;2023-02-19T15:36:54;101877.16;;;4.81;72.81
18765;BME280;9511;54.242;12.448;2023-02-19T15:39:28;101867.66;;;4.70;73.12
18765;BME280;9511;54.242;12.448;2023-02-19T15:41:58;101874.63;;;4.56;73.83
18765;BME280;9511;54.242;12.448;2023-02-19T15:44:33;101879.31;;;4.35;74.50
18765;BME280;9511;54.242;12.448;2023-02-19T15:47:11;101878.81;;;4.41;75.45
18765;BME280;9511;54.242;12.448;2023-02-19T15:49:45;101898.47;;;4.34;75.84
18765;BME280;9511;54.242;12.448;2023-02-19T15:52:21;101896.66;;;4.33;76.00
18765;BME280;9511;54.242;12.448;2023-02-19T16:30:57;101885.69;;;3.39;78.72
18765;BME280;9511;54.242;12.448;2023-02-19T16:33:37;101882.50;;;3.31;79.52
18765;BME280;9511;54.242;12.448;2023-02-19T16:36:20;101879.09;;;3.20;79.80
18765;BME280;9511;54.242;12.448;2023-02-19T16:39:17;101892.19;;;3.09;79.92
18765;BME280;9511;54.242;12.448;2023-02-19T16:42:15;101884.34;;;3.09;80.41
18765;BME280;9511;54.242;12.448;2023-02-19T16:44:45;101884.16;;;3.06;80.32
18765;BME280;9511;54.242;12.448;2023-02-19T16:47:20;101887.13;;;2.99;80.60
18765;BME280;9511;54.242;12.448;2023-02-19T16:49:50;101891.88;;;3.04;80.85
18765;BME280;9511;54.242;12.448;2023-02-19T16:52:17;101904.38;;;2.97;80.87
18765;BME280;9511;54.242;12.448;2023-02-19T16:54:46;101899.13;;;2.97;80.30
18765;BME280;9511;54.242;12.448;2023-02-19T16:57:13;101902.34;;;2.92;80.70
18765;BME280;9511;54.242;12.448;2023-02-19T16:59:41;101902.34;;;2.92;80.91
18765;BME280;9511;54.242;12.448;2023-02-19T17:02:16;101888.78;;;2.86;81.08
18765;BME280;9511;54.242;12.448;2023-02-19T17:04:45;101896.53;;;2.85;81.07
18765;BME280;9511;54.242;12.448;2023-02-19T17:07:14;101903.00;;;2.78;80.97
18765;BME280;9511;54.242;12.448;2023-02-19T17:09:42;101907.09;;;2.75;81.71
18765;BME280;9511;54.242;12.448;2023-02-19T17:12:11;101904.63;;;2.76;81.66
18765;BME280;9511;54.242;12.448;2023-02-19T17:14:38;101889.25;;;2.69;82.00
18765;BME280;9511;54.242;12.448;2023-02-19T17:17:06;101899.59;;;2.67;81.99
18765;BME280;9511;54.242;12.448;2023-02-19T17:19:34;101893.00;;;2.61;82.31
18765;BME280;9511;54.242;12.448;2023-02-19T17:22:02;101903.22;;;2.58;83.19
18765;BME280;9511;54.242;12.448;2023-02-19T17:24:29;101906.63;;;2.57;83.08
18765;BME280;9511;54.242;12.448;2023-02-19T17:26:57;101904.34;;;2.50;83.40
18765;BME280;9511;54.242;12.448;2023-02-19T17:29:25;101904.78;;;2.44;83.42
18765;BME280;9511;54.242;12.448;2023-02-19T17:31:53;101898.19;;;2.37;83.90
18765;BME280;9511;54.242;12.448;2023-02-19T17:34:21;101900.00;;;2.38;84.03
18765;BME280;9511;54.242;12.448;2023-02-19T17:36:49;101902.28;;;2.46;84.26
18765;BME280;9511;54.242;12.448;2023-02-19T17:39:17;101897.66;;;2.42;84.14
18765;BME280;9511;54.242;12.448;2023-02-19T17:41:45;101906.13;;;2.39;83.94
18765;BME280;9511;54.242;12.448;2023-02-19T17:44:12;101909.66;;;2.39;83.97
18765;BME280;9511;54.242;12.448;2023-02-19T17:46:40;101919.75;;;2.35;83.82
18765;BME280;9511;54.242;12.448;2023-02-19T17:49:09;101912.59;;;2.32;83.44
18765;BME280;9511;54.242;12.448;2023-02-19T17:51:38;101913.16;;;2.28;83.36
18765;BME280;9511;54.242;12.448;2023-02-19T17:54:06;101913.84;;;2.26;83.70
18765;BME280;9511;54.242;12.448;2023-02-19T17:56:34;101923.69;;;2.18;83.65
18765;BME280;9511;54.242;12.448;2023-02-19T17:59:01;101917.69;;;2.19;83.53
18765;BME280;9511;54.242;12.448;2023-02-19T18:01:28;101916.53;;;2.16;83.51
18765;BME280;9511;54.242;12.448;2023-02-19T18:03:56;101908.22;;;2.09;83.37
18765;BME280;9511;54.242;12.448;2023-02-19T18:06:23;101923.53;;;2.05;83.55
18765;BME280;9511;54.242;12.448;2023-02-19T18:08:51;101910.25;;;2.02;83.49
18765;BME280;9511;54.242;12.448;2023-02-19T18:11:21;101914.09;;;1.95;83.60
18765;BME280;9511;54.242;12.448;2023-02-19T18:13:50;101913.94;;;1.94;83.49
18765;BME280;9511;54.242;12.448;2023-02-19T18:16:18;101915.75;;;1.95;83.47
18765;BME280;9511;54.242;12.448;2023-02-19T18:18:45;101918.38;;;1.95;83.49
18765;BME280;9511;54.242;12.448;2023-02-19T18:21:13;101917.72;;;1.97;82.99
18765;BME280;9511;54.242;12.448;2023-02-19T18:23:45;101920.44;;;1.99;83.35
18765;BME280;9511;54.242;12.448;2023-02-19T18:26:18;101919.09;;;2.04;83.33
18765;BME280;9511;54.242;12.448;2023-02-19T18:28:47;101918.41;;;2.06;83.67
18765;BME280;9511;54.242;12.448;2023-02-19T18:31:17;101915.63;;;2.15;83.77
18765;BME280;9511;54.242;12.448;2023-02-19T18:33:44;101917.69;;;2.19;83.59
18765;BME280;9511;54.242;12.448;2023-02-19T18:36:11;101920.41;;;2.21;83.95
18765;BME280;9511;54.242;12.448;2023-02-19T18:38:38;101913.72;;;2.24;84.37
18765;BME280;9511;54.242;12.448;2023-02-19T18:41:09;101906.13;;;2.27;84.76
18765;BME280;9511;54.242;12.448;2023-02-19T18:43:37;101906.13;;;2.27;84.92
18765;BME280;9511;54.242;12.448;2023-02-19T18:46:07;101898.06;;;2.24;85.49
18765;BME280;9511;54.242;12.448;2023-02-19T18:48:35;101893.16;;;2.29;86.04
18765;BME280;9511;54.242;12.448;2023-02-19T18:51:03;101901.25;;;2.32;86.14
18765;BME280;9511;54.242;12.448;2023-02-19T18:53:31;101904.22;;;2.36;86.41
18765;BME280;9511;54.242;12.448;2023-02-19T18:55:58;101900.47;;;2.45;86.94
18765;BME280;9511;54.242;12.448;2023-02-19T18:58:26;101899.13;;;2.50;87.44
18765;BME280;9511;54.242;12.448;2023-02-19T19:00:54;101896.63;;;2.63;87.38
18765;BME280;9511;54.242;12.448;2023-02-19T19:03:23;101894.81;;;2.74;87.45
18765;BME280;9511;54.242;12.448;2023-02-19T19:05:50;101898.03;;;2.81;87.25
18765;BME280;9511;54.242;12.448;2023-02-19T19:08:18;101893.00;;;2.84;87.49
18765;BME280;9511;54.242;12.448;2023-02-19T19:10:45;101899.25;;;2.86;87.28
18765;BME280;9511;54.242;12.448;2023-02-19T19:13:12;101890.50;;;2.86;87.56
18765;BME280;9511;54.242;12.448;2023-02-19T19:15:40;101894.38;;;2.91;87.35
18765;BME280;9511;54.242;12.448;2023-02-19T19:18:07;101891.91;;;2.92;87.56
18765;BME280;9511;54.242;12.448;2023-02-19T19:20:36;101896.41;;;2.95;87.75
18765;BME280;9511;54.242;12.448;2023-02-19T19:23:03;101879.03;;;3.07;87.64
18765;BME280;9511;54.242;12.448;2023-02-19T19:25:31;101872.88;;;3.07;87.96
18765;BME280;9511;54.242;12.448;2023-02-19T19:27:58;101876.31;;;3.06;87.90
18765;BME280;9511;54.242;12.448;2023-02-19T19:30:27;101880.50;;;3.15;88.16
18765;BME280;9511;54.242;12.448;2023-02-19T19:32:54;101871.41;;;3.22;88.10
18765;BME280;9511;54.242;12.448;2023-02-19T19:35:21;101877.88;;;3.27;88.03
18765;BME280;9511;54.242;12.448;2023-02-19T19:37:50;101879.34;;;3.24;88.27
18765;BME280;9511;54.242;12.448;2023-02-19T19:40:18;101870.31;;;3.32;88.11
18765;BME280;9511;54.242;12.448;2023-02-19T19:42:45;101879.69;;;3.28;88.06